Time;durP1;ratioP1;P1;durP2;ratioP2;P2;SDS_P1;SDS_P2;PMS_P1;PMS_P2;Temp;Humidity;BMP_temperature;BMP_pressure;BME280_temperature;BME280_humidity;BME280_pressure;Samples;Min_cycle;Max_cycle;Signal;HPM_P1;HPM_P2
2023/09/02 00:01:03;;;;;;;14.83;11.97;;;;;;;18.11;74.01;100785.94;1802275;79;21847;-55
2023/09/02 00:04:10;;;;;;;14.93;11.35;;;;;;;18.10;74.15;100782.00;1802049;79;21378;-55
2023/09/02 00:07:18;;;;;;;13.15;11.73;;;;;;;18.10;74.33;100785.63;1801949;79;21355;-55
2023/09/02 00:10:24;;;;;;;15.35;11.28;;;;;;;18.10;74.44;100782.86;1801637;79;21814;-55
2023/09/02 00:13:30;;;;;;;13.22;11.15;;;;;;;18.12;74.51;100782.64;1801973;79;21366;-53
2023/09/02 00:16:36;;;;;;;15.80;11.45;;;;;;;18.12;74.59;100786.28;1801968;78;21379;-53
2023/09/02 00:19:43;;;;;;;13.93;12.28;;;;;;;18.12;74.62;100784.03;1801820;79;21340;-54
2023/09/02 00:22:49;;;;;;;15.32;11.63;;;;;;;18.12;74.65;100790.95;1802542;79;21343;-54
2023/09/02 00:25:56;;;;;;;12.50;11.05;;;;;;;18.12;74.73;100795.11;1801935;79;21826;-55
2023/09/02 00:29:04;;;;;;;14.63;11.55;;;;;;;18.14;74.79;100801.30;1790700;79;21350;-55
2023/09/02 00:32:10;;;;;;;13.62;11.90;;;;;;;18.12;74.85;100793.73;1802886;79;21320;-55
2023/09/02 00:35:17;;;;;;;16.75;11.88;;;;;;;18.12;74.93;100801.52;1802642;79;21370;-55
2023/09/02 00:38:23;;;;;;;16.00;13.05;;;;;;;18.13;74.98;100805.98;1801306;79;21324;-54
2023/09/02 00:41:55;;;;;;;14.23;12.18;;;;;;;18.13;75.01;100800.97;1801256;79;21398;-55
2023/09/02 00:45:02;;;;;;;15.00;12.37;;;;;;;18.12;75.05;100804.81;1802056;79;21323;-54
2023/09/02 00:48:08;;;;;;;14.30;11.90;;;;;;;18.10;75.11;100802.78;1802076;78;21351;-54
2023/09/02 00:51:16;;;;;;;13.70;11.65;;;;;;;18.08;75.08;100808.54;1802140;79;21821;-54
2023/09/02 00:54:23;;;;;;;14.00;12.05;;;;;;;18.06;75.10;100802.35;1795091;79;21880;-55
2023/09/02 00:57:29;;;;;;;13.58;12.03;;;;;;;18.04;75.13;100801.73;1802308;78;21359;-54
2023/09/02 01:00:35;;;;;;;18.00;12.37;;;;;;;18.00;75.17;100807.38;1801984;79;21354;-54
2023/09/02 01:03:42;;;;;;;16.05;12.45;;;;;;;17.99;75.27;100800.13;1802231;79;21355;-53
2023/09/02 01:06:48;;;;;;;13.98;12.50;;;;;;;17.98;75.38;100807.28;1801891;79;21339;-54
2023/09/02 01:09:54;;;;;;;15.83;12.93;;;;;;;17.95;75.43;100804.38;1801883;79;21213;-53
2023/09/02 01:13:00;;;;;;;16.17;13.30;;;;;;;17.93;75.52;100810.69;1801991;79;21332;-53
2023/09/02 01:16:05;;;;;;;17.90;12.55;;;;;;;17.93;75.62;100806.53;1802572;79;21390;-53
2023/09/02 01:19:11;;;;;;;16.85;11.80;;;;;;;17.92;75.65;100819.22;1801981;79;21352;-54
2023/09/02 01:22:57;;;;;;;14.28;12.40;;;;;;;17.89;75.67;100818.57;1802032;79;21434;-54
2023/09/02 01:26:43;;;;;;;15.32;12.33;;;;;;;17.86;75.60;100811.20;1778212;78;21331;-53
2023/09/02 01:29:55;;;;;;;16.60;12.70;;;;;;;17.81;75.70;100810.47;1802183;79;21864;-54
2023/09/02 01:33:03;;;;;;;14.83;13.13;;;;;;;17.80;75.85;100814.83;1802194;78;21170;-53
2023/09/02 01:36:12;;;;;;;13.55;12.03;;;;;;;17.80;75.95;100814.83;1802221;79;21371;-53
2023/09/02 01:39:16;;;;;;;13.83;12.28;;;;;;;17.77;76.03;100817.48;1801885;78;21327;-54
2023/09/02 01:42:21;;;;;;;16.27;12.55;;;;;;;17.77;76.13;100823.56;1801003;79;21889;-53
2023/09/02 01:45:27;;;;;;;16.45;13.08;;;;;;;17.74;76.14;100822.61;1802845;79;21336;-53
2023/09/02 01:48:32;;;;;;;15.95;13.03;;;;;;;17.72;76.18;100828.36;1802280;79;21340;-53
2023/09/02 01:51:41;;;;;;;14.28;12.78;;;;;;;17.69;76.23;100827.92;1802485;78;21355;-54
2023/09/02 01:54:47;;;;;;;17.52;12.63;;;;;;;17.68;76.27;100835.89;1802112;79;21347;-55
2023/09/02 01:57:53;;;;;;;15.55;13.25;;;;;;;17.66;76.34;100836.10;1802033;79;21413;-54
2023/09/02 02:01:00;;;;;;;14.58;12.35;;;;;;;17.64;76.44;100826.31;1802076;79;21331;-54
2023/09/02 02:04:42;;;;;;;16.90;13.03;;;;;;;17.62;76.53;100823.76;1802220;79;21336;-53
2023/09/02 02:07:54;;;;;;;15.23;13.30;;;;;;;17.60;76.57;100833.35;1802026;79;21336;-53
2023/09/02 02:10:59;;;;;;;17.12;12.45;;;;;;;17.59;76.67;100835.78;1802026;79;21402;-54
2023/09/02 02:14:09;;;;;;;15.45;13.35;;;;;;;17.55;76.68;100837.28;1802436;79;21342;-54
2023/09/02 02:17:17;;;;;;;17.92;14.20;;;;;;;17.53;76.71;100837.48;1801918;79;21347;-54
2023/09/02 02:20:25;;;;;;;16.37;13.32;;;;;;;17.49;76.74;100832.03;1801888;79;21341;-54
2023/09/02 02:23:31;;;;;;;16.05;12.98;;;;;;;17.47;76.81;100834.70;1802039;79;21432;-54
2023/09/02 02:26:37;;;;;;;14.85;12.95;;;;;;;17.45;76.90;100836.30;1802355;79;21315;-54
2023/09/02 02:29:42;;;;;;;14.50;12.85;;;;;;;17.43;76.98;100840.28;1801905;79;21398;-54
2023/09/02 02:32:50;;;;;;;15.98;12.63;;;;;;;17.41;76.97;100837.73;1801848;78;21853;-53
2023/09/02 02:35:57;;;;;;;16.95;13.40;;;;;;;17.39;76.92;100845.93;1802061;79;21342;-54
2023/09/02 02:39:07;;;;;;;16.12;13.48;;;;;;;17.36;76.93;100849.12;1801861;79;21425;-55
2023/09/02 02:42:15;;;;;;;16.52;13.28;;;;;;;17.36;77.03;100847.73;1802900;77;21375;-53
2023/09/02 02:45:20;;;;;;;14.63;12.60;;;;;;;17.34;77.05;100863.17;1801913;79;21335;-53
2023/09/02 02:48:28;;;;;;;16.32;13.70;;;;;;;17.32;77.00;100856.98;1802251;79;21390;-53
2023/09/02 02:51:34;;;;;;;14.33;12.05;;;;;;;17.30;76.92;100858.27;1801825;79;21358;-53
2023/09/02 02:54:39;;;;;;;16.87;12.68;;;;;;;17.26;76.95;100854.19;1801877;79;21205;-53
2023/09/02 02:57:45;;;;;;;18.20;13.62;;;;;;;17.24;76.97;100856.30;1802069;79;21833;-53
2023/09/02 03:00:52;;;;;;;15.90;12.98;;;;;;;17.22;77.06;100850.14;1801683;79;21335;-54
2023/09/02 03:03:58;;;;;;;15.30;13.22;;;;;;;17.21;77.12;100853.95;1801818;79;21741;-54
2023/09/02 03:07:05;;;;;;;16.95;13.70;;;;;;;17.22;77.20;100857.05;1802076;79;21825;-55
2023/09/02 03:10:12;;;;;;;15.88;13.50;;;;;;;17.20;77.31;100865.56;1802134;79;21335;-54
2023/09/02 03:13:18;;;;;;;18.23;13.85;;;;;;;17.20;77.41;100865.56;1802320;79;21350;-54
2023/09/02 03:16:27;;;;;;;16.77;14.20;;;;;;;17.21;77.48;100863.63;1801955;79;21852;-53
2023/09/02 03:19:34;;;;;;;15.95;14.25;;;;;;;17.21;77.50;100871.94;1803347;79;21674;-53
2023/09/02 03:22:39;;;;;;;18.35;14.87;;;;;;;17.21;77.55;100870.03;1801843;79;21372;-53
2023/09/02 03:25:45;;;;;;;18.60;14.63;;;;;;;17.21;77.62;100870.55;1802128;79;21327;-53
2023/09/02 03:28:53;;;;;;;17.42;14.80;;;;;;;17.21;77.67;100873.31;1801961;79;21351;-54
2023/09/02 03:32:01;;;;;;;20.65;14.47;;;;;;;17.21;77.71;100877.47;1802169;79;21327;-54
2023/09/02 03:35:07;;;;;;;21.62;14.65;;;;;;;17.22;77.79;100883.34;1802040;79;21328;-55
2023/09/02 03:38:13;;;;;;;16.50;14.38;;;;;;;17.24;77.86;100879.30;1802741;79;21399;-53
2023/09/02 03:41:23;;;;;;;16.82;14.35;;;;;;;17.27;77.93;100883.55;1801939;79;21350;-54
2023/09/02 03:44:28;;;;;;;18.10;14.40;;;;;;;17.30;78.00;100895.07;1800229;78;21947;-54
2023/09/02 03:47:38;;;;;;;18.23;13.50;;;;;;;17.33;78.01;100900.74;1801786;79;21336;-54
2023/09/02 03:51:11;;;;;;;20.48;14.33;;;;;;;17.35;78.11;100899.45;1801745;79;21931;-54
2023/09/02 03:54:15;;;;;;;19.20;14.53;;;;;;;17.39;78.15;100905.44;1801680;79;21374;-54
2023/09/02 03:57:22;;;;;;;16.00;13.80;;;;;;;17.43;78.24;100907.58;1801761;79;21350;-54
2023/09/02 04:00:28;;;;;;;18.80;14.65;;;;;;;17.49;78.31;100899.03;1802355;79;21366;-54
2023/09/02 04:03:36;;;;;;;15.50;13.90;;;;;;;17.53;78.40;100909.47;1801929;79;21355;-54
2023/09/02 04:06:41;;;;;;;17.90;14.47;;;;;;;17.60;78.49;100907.56;1802582;79;21315;-54
2023/09/02 04:09:49;;;;;;;17.15;14.50;;;;;;;17.67;78.54;100910.34;1802512;79;21836;-54
2023/09/02 04:12:54;;;;;;;22.35;15.85;;;;;;;17.73;78.59;100915.05;1801923;79;21885;-54
2023/09/02 04:16:09;;;;;;;23.02;14.80;;;;;;;17.79;78.61;100915.62;1801990;79;21327;-54
2023/09/02 04:19:17;;;;;;;19.80;15.70;;;;;;;17.86;78.68;100922.01;1802085;79;21940;-53
2023/09/02 04:22:22;;;;;;;20.68;15.58;;;;;;;17.92;78.76;100925.31;1802316;79;21335;-54
2023/09/02 04:25:27;;;;;;;17.15;13.65;;;;;;;18.01;78.83;100929.62;1801659;79;21371;-53
2023/09/02 04:28:37;;;;;;;17.45;15.00;;;;;;;18.07;78.90;100923.22;1802052;78;21390;-54
2023/09/02 04:31:45;;;;;;;18.05;15.20;;;;;;;18.12;78.91;100920.68;1801534;79;21442;-54
2023/09/02 04:34:51;;;;;;;21.77;14.85;;;;;;;18.19;79.00;100935.37;1801831;79;22201;-54
2023/09/02 04:37:57;;;;;;;17.15;13.45;;;;;;;18.22;78.99;100925.80;1801461;79;21347;-53
2023/09/02 04:41:06;;;;;;;18.27;14.07;;;;;;;18.26;79.03;100930.70;1800860;79;21951;-54
2023/09/02 04:44:12;;;;;;;18.92;15.10;;;;;;;18.28;79.00;100934.12;1801034;79;21319;-54
2023/09/02 04:47:20;;;;;;;20.10;14.07;;;;;;;18.33;79.09;100935.70;1801563;79;21900;-54
2023/09/02 04:50:26;;;;;;;21.48;13.65;;;;;;;18.38;79.14;100933.70;1801490;78;21343;-55
2023/09/02 04:53:36;;;;;;;15.25;12.82;;;;;;;18.41;79.21;100932.75;1801455;78;21367;-53
2023/09/02 04:56:43;;;;;;;16.37;12.88;;;;;;;18.49;79.30;100927.00;1801047;78;21355;-53
2023/09/02 04:59:48;;;;;;;15.83;13.93;;;;;;;18.53;79.30;100924.66;1793963;79;21347;-53
2023/09/02 05:02:53;;;;;;;15.58;12.82;;;;;;;18.58;79.36;100922.96;1801446;79;21327;-53
2023/09/02 05:06:02;;;;;;;15.38;12.93;;;;;;;18.63;79.38;100927.30;1801686;78;21343;-53
2023/09/02 05:09:13;;;;;;;14.78;11.55;;;;;;;18.71;79.45;100922.09;1801965;78;21360;-53
2023/09/02 05:12:18;;;;;;;15.88;11.85;;;;;;;18.79;79.48;100921.31;1801739;79;21323;-53
2023/09/02 05:15:23;;;;;;;14.23;11.15;;;;;;;18.86;79.52;100924.08;1802026;79;21410;-53
2023/09/02 05:18:30;;;;;;;16.17;11.00;;;;;;;18.91;79.52;100919.60;1802233;79;21335;-53
2023/09/02 05:21:37;;;;;;;14.13;11.05;;;;;;;18.99;79.55;100915.73;1802247;78;21344;-55
2023/09/02 05:24:42;;;;;;;15.03;10.60;;;;;;;19.04;79.59;100912.61;1801510;79;21390;-54
2023/09/02 05:27:49;;;;;;;18.05;10.98;;;;;;;19.11;79.61;100917.61;1801748;78;21343;-54
2023/09/02 05:30:54;;;;;;;13.20;9.95;;;;;;;19.17;79.62;100929.23;1774270;79;21225;-53
2023/09/02 05:34:00;;;;;;;11.80;9.73;;;;;;;19.23;79.68;100926.95;1769818;80;21218;-54
2023/09/02 05:37:07;;;;;;;11.22;9.35;;;;;;;19.32;79.75;100937.33;1770212;81;21206;-54
2023/09/02 05:40:16;;;;;;;11.68;8.38;;;;;;;19.40;79.73;100940.39;1770382;81;21218;-53
2023/09/02 05:43:24;;;;;;;11.53;8.58;;;;;;;19.46;79.68;100940.89;1770323;80;21178;-54
2023/09/02 05:46:31;;;;;;;12.15;8.78;;;;;;;19.53;79.73;100943.98;1769962;80;21237;-53
2023/09/02 05:49:37;;;;;;;10.60;9.28;;;;;;;19.62;79.76;100939.02;1769858;79;21210;-54
2023/09/02 05:52:44;;;;;;;11.65;9.20;;;;;;;19.72;79.80;100940.27;1769915;81;21249;-54
2023/09/02 05:55:54;;;;;;;11.65;8.05;;;;;;;19.82;79.80;100937.84;1770720;80;21337;-53
2023/09/02 05:59:00;;;;;;;10.85;8.13;;;;;;;19.91;79.78;100932.88;1770398;80;21226;-53
2023/09/02 06:02:06;;;;;;;10.63;8.88;;;;;;;19.98;79.77;100938.70;1770183;80;21460;-52
2023/09/02 06:05:12;;;;;;;9.35;8.05;;;;;;;20.08;79.71;100939.08;1770079;79;21338;-54
2023/09/02 06:08:18;;;;;;;12.73;9.38;;;;;;;20.12;79.69;100947.27;1766727;80;21331;-53
2023/09/02 06:11:23;;;;;;;9.68;8.08;;;;;;;20.20;79.73;100952.59;1766167;81;21721;-53
2023/09/02 06:14:29;;;;;;;11.22;7.65;;;;;;;20.27;79.65;100960.89;1766660;81;21725;-54
2023/09/02 06:17:37;;;;;;;12.43;8.68;;;;;;;20.34;79.65;100960.32;1766792;81;21211;-55
2023/09/02 06:20:45;;;;;;;12.70;8.80;;;;;;;20.41;79.63;100960.58;1767022;81;21188;-56
2023/09/02 06:23:53;;;;;;;10.68;8.28;;;;;;;20.49;79.63;100956.13;1768607;80;21255;-55
2023/09/02 06:27:03;;;;;;;11.33;8.33;;;;;;;20.53;79.50;100955.97;1766745;81;21176;-55
2023/09/02 06:30:07;;;;;;;12.43;8.10;;;;;;;20.56;79.44;100956.08;1766567;81;21255;-55
2023/09/02 06:33:16;;;;;;;9.98;7.65;;;;;;;20.60;79.45;100955.39;1770833;80;21223;-55
2023/09/02 06:36:23;;;;;;;8.95;7.58;;;;;;;20.66;79.43;100960.04;1766568;80;21195;-53
2023/09/02 06:39:29;;;;;;;8.80;7.45;;;;;;;20.73;79.42;100954.42;1766598;81;21712;-54
2023/09/02 06:42:36;;;;;;;11.45;7.00;;;;;;;20.79;79.40;100955.75;1767215;81;21207;-54
2023/09/02 06:45:42;;;;;;;11.70;7.00;;;;;;;20.86;79.35;100952.91;1776724;80;21299;-54
2023/09/02 06:48:48;;;;;;;9.53;7.05;;;;;;;20.92;79.32;100953.38;1784835;78;21366;-54
2023/09/02 06:51:57;;;;;;;7.97;7.08;;;;;;;20.98;79.22;100952.48;1797773;79;21362;-54
2023/09/02 06:55:03;;;;;;;10.48;7.35;;;;;;;21.02;79.16;100952.89;1797793;79;21164;-56
2023/09/02 06:58:11;;;;;;;9.30;6.80;;;;;;;21.09;79.13;100954.52;1797603;80;21860;-55
2023/09/02 07:01:23;;;;;;;8.05;6.40;;;;;;;21.16;79.07;100960.88;1760093;81;21386;-55
2023/09/02 07:04:30;;;;;;;6.83;6.03;;;;;;;21.24;79.03;100959.72;1798427;78;21338;-53
2023/09/02 07:07:37;;;;;;;7.03;5.75;;;;;;;21.32;78.95;100954.70;1797883;80;21824;-55
2023/09/02 07:10:43;;;;;;;6.45;5.72;;;;;;;21.42;78.81;100958.34;1759609;81;21367;-55
2023/09/02 07:13:52;;;;;;;15.23;6.53;;;;;;;21.49;78.69;100954.38;1798027;79;21469;-55
2023/09/02 07:16:58;;;;;;;8.75;6.30;;;;;;;21.59;78.69;100963.05;1741752;81;21347;-54
2023/09/02 07:20:04;;;;;;;9.53;6.17;;;;;;;21.68;78.48;100961.64;1766986;81;21172;-55
2023/09/02 07:23:09;;;;;;;7.00;4.95;;;;;;;21.73;78.28;100957.62;1791330;78;21377;-55
2023/09/02 07:26:15;;;;;;;10.80;5.30;;;;;;;21.79;78.13;100949.73;1783672;80;21320;-55
2023/09/02 07:29:22;;;;;;;6.15;5.10;;;;;;;21.85;78.02;100960.50;1786307;80;21338;-55
2023/09/02 07:32:29;;;;;;;6.83;4.95;;;;;;;21.93;77.84;100957.36;1798205;79;21361;-55
2023/09/02 07:35:36;;;;;;;7.72;5.30;;;;;;;22.01;77.78;100957.89;1798361;79;21322;-55
2023/09/02 07:38:41;;;;;;;8.65;4.70;;;;;;;22.09;77.62;100953.91;1785173;79;21852;-55
2023/09/02 07:41:47;;;;;;;6.25;4.50;;;;;;;22.16;77.41;100958.33;1771162;80;21231;-55
2023/09/02 07:44:52;;;;;;;6.83;4.80;;;;;;;22.23;77.20;100959.06;1774715;80;21789;-55
2023/09/02 07:47:58;;;;;;;6.87;4.60;;;;;;;22.29;77.02;100960.06;1767530;80;21226;-55
2023/09/02 07:51:04;;;;;;;7.20;4.45;;;;;;;22.41;76.91;100957.28;1765414;81;21238;-56
2023/09/02 07:54:10;;;;;;;6.15;4.25;;;;;;;22.52;76.72;100964.86;1764886;81;21207;-55
2023/09/02 07:57:18;;;;;;;4.58;3.50;;;;;;;22.65;76.43;100958.53;1748368;80;21180;-55
2023/09/02 08:00:24;;;;;;;5.50;4.12;;;;;;;22.79;76.19;100952.16;1765929;80;21187;-55
2023/09/02 08:03:31;;;;;;;6.62;3.58;;;;;;;22.95;76.00;100956.49;1763303;79;21215;-55
2023/09/02 08:06:37;;;;;;;4.53;3.60;;;;;;;23.09;75.67;100952.89;1765400;81;21179;-55
2023/09/02 08:09:43;;;;;;;4.90;3.10;;;;;;;23.20;75.32;100965.47;1766234;81;21717;-54
2023/09/02 08:12:48;;;;;;;3.77;3.27;;;;;;;23.29;74.95;100964.59;1765780;81;21199;-55
2023/09/02 08:15:54;;;;;;;3.87;2.98;;;;;;;23.32;74.60;100969.16;1765880;81;21188;-55
2023/09/02 08:18:59;;;;;;;5.10;3.65;;;;;;;23.38;74.32;100972.36;1766300;80;21585;-56
2023/09/02 08:22:05;;;;;;;7.35;3.27;;;;;;;23.45;74.10;100969.44;1765803;81;21204;-55
2023/09/02 08:25:11;;;;;;;4.25;3.20;;;;;;;23.51;73.78;100958.66;1765667;81;21168;-54
2023/09/02 08:28:18;;;;;;;4.55;3.20;;;;;;;23.52;73.32;100959.81;1749340;81;21195;-55
2023/09/02 08:31:27;;;;;;;9.60;3.02;;;;;;;23.58;73.08;100955.16;1766261;81;21229;-55
2023/09/02 08:34:33;;;;;;;4.20;2.87;;;;;;;23.66;72.81;100960.94;1766773;81;21204;-54
2023/09/02 08:37:38;;;;;;;4.12;2.40;;;;;;;23.71;72.49;100963.28;1767269;81;21176;-54
2023/09/02 08:40:46;;;;;;;4.78;3.12;;;;;;;23.71;72.01;100955.43;1766813;80;21199;-55
2023/09/02 08:43:52;;;;;;;4.25;2.77;;;;;;;23.78;71.84;100971.53;1750032;81;21409;-55
2023/09/02 08:47:00;;;;;;;4.85;2.87;;;;;;;23.83;71.57;100964.11;1756490;80;21354;-55
2023/09/02 08:50:07;;;;;;;4.30;2.70;;;;;;;23.86;71.02;100966.41;1770808;79;21210;-55
2023/09/02 08:53:13;;;;;;;4.80;2.87;;;;;;;23.86;70.66;100965.02;1771795;80;21235;-55
2023/09/02 08:56:20;;;;;;;5.37;3.35;;;;;;;23.86;70.34;100963.61;1764312;80;21347;-56
2023/09/02 08:59:27;;;;;;;7.45;3.33;;;;;;;23.88;70.06;100965.59;1772055;79;21225;-55
2023/09/02 09:02:33;;;;;;;5.45;3.02;;;;;;;23.98;69.88;100974.23;1779938;79;21228;-56
2023/09/02 09:05:39;;;;;;;6.78;3.33;;;;;;;24.08;69.59;100972.19;1777271;79;21343;-55
2023/09/02 09:08:46;;;;;;;4.62;2.87;;;;;;;24.15;69.23;100976.52;1771742;80;21249;-55
2023/09/02 09:11:52;;;;;;;7.00;3.45;;;;;;;;;;1771289;80;21332;-55
2023/09/02 09:15:00;;;;;;;6.25;4.10;;;;;;;24.30;68.48;100988.56;1770865;80;21410;-55
2023/09/02 09:18:05;;;;;;;4.53;2.87;;;;;;;24.28;68.00;100974.83;1771177;79;21924;-56
2023/09/02 09:21:10;;;;;;;4.87;2.50;;;;;;;24.27;67.52;100985.73;1771046;81;22208;-55
2023/09/02 09:24:21;;;;;;;5.20;2.80;;;;;;;24.24;67.05;100985.38;1790097;79;21181;-55
2023/09/02 09:27:27;;;;;;;2.90;2.22;;;;;;;24.22;66.68;100981.43;1800469;78;21869;-55
2023/09/02 09:30:35;;;;;;;9.78;3.33;;;;;;;24.24;66.41;100980.64;1794544;79;21858;-54
2023/09/02 09:33:41;;;;;;;4.95;3.25;;;;;;;24.27;65.93;100992.73;1797627;79;21446;-54
2023/09/02 09:36:47;;;;;;;4.17;2.58;;;;;;;24.29;65.55;100992.48;1802638;79;21335;-57
2023/09/02 09:39:56;;;;;;;4.15;2.50;;;;;;;24.34;65.26;100990.61;1802696;79;21912;-56
2023/09/02 09:43:01;;;;;;;5.65;2.30;;;;;;;24.39;64.90;100990.71;1797697;78;21769;-55
2023/09/02 09:46:07;;;;;;;4.33;2.00;;;;;;;24.45;64.48;101002.30;1734286;82;21193;-54
2023/09/02 09:49:14;;;;;;;2.65;1.90;;;;;;;24.49;63.92;100992.84;1792257;79;21354;-55
2023/09/02 09:52:21;;;;;;;6.78;2.20;;;;;;;24.51;63.41;101006.91;1782967;79;21200;-55
2023/09/02 09:55:31;;;;;;;2.80;2.08;;;;;;;24.53;62.86;101009.46;1801181;79;21177;-55
2023/09/02 09:58:38;;;;;;;3.30;2.15;;;;;;;24.53;62.45;101003.28;1801420;79;21341;-55
2023/09/02 10:01:43;;;;;;;3.75;2.50;;;;;;;24.52;62.02;101004.94;1801114;79;21336;-55
2023/09/02 10:04:48;;;;;;;3.60;2.10;;;;;;;24.57;61.67;100996.09;1800990;79;21244;-56
2023/09/02 10:07:57;;;;;;;4.97;2.35;;;;;;;24.65;61.45;101002.69;1771331;79;21231;-55
2023/09/02 10:11:02;;;;;;;3.12;2.20;;;;;;;24.68;60.98;100993.80;1766283;80;21192;-55
2023/09/02 10:14:08;;;;;;;4.28;2.20;;;;;;;24.67;60.46;100997.69;1771942;79;21212;-55
2023/09/02 10:17:16;;;;;;;5.12;2.27;;;;;;;24.66;59.93;100993.20;1768899;80;21189;-54
2023/09/02 10:20:21;;;;;;;7.72;2.65;;;;;;;24.70;59.57;100995.81;1770379;80;21265;-55
2023/09/02 10:23:28;;;;;;;4.47;2.55;;;;;;;24.75;59.21;101009.05;1761524;80;21228;-55
2023/09/02 10:26:45;;;;;;;2.85;2.33;;;;;;;24.78;58.71;101001.54;1783878;79;22037;-55
2023/09/02 10:29:52;;;;;;;6.08;3.75;;;;;;;24.81;58.31;100990.69;1791373;79;21170;-54
2023/09/02 10:33:02;;;;;;;3.70;2.80;;;;;;;24.88;57.91;101001.69;1770223;79;21601;-55
2023/09/02 10:36:08;;;;;;;13.65;2.45;;;;;;;24.94;57.55;101008.53;1768767;80;21193;-56
2023/09/02 10:39:19;;;;;;;6.70;3.17;;;;;;;24.95;56.95;100996.78;1733911;82;21764;-56
2023/09/02 10:42:24;;;;;;;4.72;2.17;;;;;;;24.97;56.47;101002.98;1769453;80;21236;-55
2023/09/02 10:45:31;;;;;;;2.90;1.98;;;;;;;24.99;56.05;100993.21;1779614;79;22153;-55
2023/09/02 10:48:40;;;;;;;2.83;1.95;;;;;;;25.04;55.65;100998.05;1734656;82;21192;-55
2023/09/02 10:51:47;;;;;;;3.00;2.05;;;;;;;25.12;55.27;100996.78;1774947;79;21893;-54
2023/09/02 10:55:14;;;;;;;2.37;1.72;;;;;;;25.17;54.86;101007.51;1793454;79;21751;-55
2023/09/02 10:58:19;;;;;;;2.65;1.72;;;;;;;25.17;54.34;100989.30;1800810;79;21386;-55
2023/09/02 11:01:25;;;;;;;3.47;1.77;;;;;;;25.21;54.02;100991.03;1801083;78;21418;-53
2023/09/02 11:04:54;;;;;;;2.65;1.65;;;;;;;25.25;53.61;100988.00;1785216;79;21219;-54
2023/09/02 11:07:59;;;;;;;3.83;1.90;;;;;;;25.33;53.31;100996.83;1773812;79;21750;-54
2023/09/02 11:11:06;;;;;;;3.20;1.80;;;;;;;25.44;52.96;100995.91;1801323;79;21308;-54
2023/09/02 11:14:25;;;;;;;3.50;1.85;;;;;;;25.56;52.58;101001.41;1801064;79;21900;-56
2023/09/02 11:17:36;;;;;;;2.62;2.00;;;;;;;25.61;52.05;101000.08;1801547;78;21868;-55
2023/09/02 11:20:53;;;;;;;2.33;1.85;;;;;;;25.65;51.68;100995.64;1801473;79;21504;-53
2023/09/02 11:24:00;;;;;;;3.22;1.80;;;;;;;25.74;51.41;100990.72;1794155;79;21366;-53
2023/09/02 11:27:08;;;;;;;2.65;1.72;;;;;;;25.93;51.23;100997.70;1769903;80;21414;-54
2023/09/02 11:30:19;;;;;;;2.17;1.75;;;;;;;26.04;50.75;100991.13;1761309;80;21177;-53
2023/09/02 11:33:28;;;;;;;3.08;1.77;;;;;;;26.09;50.26;100995.95;1763743;80;21385;-54
2023/09/02 11:36:35;;;;;;;5.12;1.90;;;;;;;26.12;49.85;100991.22;1780389;79;21185;-53
2023/09/02 11:39:41;;;;;;;3.92;1.65;;;;;;;26.13;49.42;100982.53;1801817;79;21387;-55
2023/09/02 11:43:07;;;;;;;4.62;2.02;;;;;;;26.22;49.20;100999.77;1801135;79;21364;-54
2023/09/02 11:46:12;;;;;;;5.17;2.37;;;;;;;26.26;48.81;100997.56;1801533;79;21397;-54
2023/09/02 11:49:30;;;;;;;5.28;2.87;;;;;;;26.27;48.40;101005.45;1801499;79;21402;-54
2023/09/02 11:52:35;;;;;;;2.90;2.00;;;;;;;26.26;48.06;101002.33;1793700;78;21932;-54
2023/09/02 11:55:40;;;;;;;3.33;2.60;;;;;;;26.19;47.57;101005.36;1801384;79;21327;-53
2023/09/02 11:58:47;;;;;;;6.75;3.20;;;;;;;26.10;47.25;101003.29;1801812;79;21335;-54
2023/09/02 12:01:53;;;;;;;6.78;3.02;;;;;;;26.01;47.00;101009.05;1770069;81;21192;-54
2023/09/02 12:04:59;;;;;;;4.12;2.17;;;;;;;26.00;46.85;100999.80;1770046;80;21194;-54
2023/09/02 12:08:05;;;;;;;4.30;2.42;;;;;;;25.99;46.60;100999.45;1770156;80;21204;-54
2023/09/02 12:11:12;;;;;;;4.12;2.30;;;;;;;25.96;46.28;101001.93;1771629;80;21184;-54
2023/09/02 12:14:17;;;;;;;4.87;2.15;;;;;;;25.91;45.92;101000.49;1770337;81;21713;-54
2023/09/02 12:17:23;;;;;;;2.85;2.20;;;;;;;25.89;45.76;101005.50;1770270;81;21769;-54
2023/09/02 12:20:31;;;;;;;4.50;2.10;;;;;;;25.91;45.56;101006.10;1782800;79;21220;-54
2023/09/02 12:23:37;;;;;;;3.52;2.17;;;;;;;25.91;45.37;100995.70;1781691;79;21305;-54
2023/09/02 12:26:58;;;;;;;7.37;2.37;;;;;;;25.97;45.27;101002.24;1769824;81;21240;-52
2023/09/02 12:30:05;;;;;;;4.67;2.45;;;;;;;25.96;45.07;101001.93;1769678;81;21193;-53
2023/09/02 12:33:13;;;;;;;3.75;2.33;;;;;;;25.95;44.87;101004.45;1770187;80;21212;-54
2023/09/02 12:36:19;;;;;;;3.87;2.10;;;;;;;25.92;44.67;101003.03;1770180;81;21196;-54
2023/09/02 12:39:34;;;;;;;3.42;2.25;;;;;;;25.87;44.43;101006.31;1774777;79;21332;-55
2023/09/02 12:42:40;;;;;;;4.47;2.10;;;;;;;25.80;44.28;101005.68;1769779;79;21624;-53
2023/09/02 12:45:45;;;;;;;4.10;2.47;;;;;;;25.79;44.19;100998.34;1769192;81;21746;-54
2023/09/02 12:48:54;;;;;;;3.85;2.40;;;;;;;25.83;44.12;100992.53;1769532;79;21284;-55
2023/09/02 12:52:02;;;;;;;6.72;2.83;;;;;;;25.90;44.09;100993.16;1769711;80;21252;-54
2023/09/02 12:55:10;;;;;;;3.60;2.10;;;;;;;25.88;43.93;100991.16;1771957;79;21220;-53
2023/09/02 12:58:17;;;;;;;2.50;1.90;;;;;;;25.84;43.79;100993.67;1763404;80;21347;-54
2023/09/02 13:01:22;;;;;;;5.00;2.00;;;;;;;25.76;43.64;100998.33;1771614;80;21347;-54
2023/09/02 13:04:29;;;;;;;3.20;2.00;;;;;;;25.73;43.51;101002.20;1773048;79;21354;-54
2023/09/02 13:07:36;;;;;;;2.35;1.90;;;;;;;25.72;43.44;101004.15;1771515;80;21603;-54
2023/09/02 13:10:42;;;;;;;4.87;2.25;;;;;;;25.69;43.28;100989.82;1771650;80;21363;-55
2023/09/02 13:13:50;;;;;;;3.52;2.22;;;;;;;25.64;43.15;100995.36;1771771;80;21343;-53
2023/09/02 13:16:55;;;;;;;5.85;1.98;;;;;;;25.60;42.96;101002.03;1771861;80;21885;-54
2023/09/02 13:20:01;;;;;;;5.92;1.85;;;;;;;25.53;42.74;101003.33;1771510;80;21382;-54
2023/09/02 13:23:12;;;;;;;5.50;2.00;;;;;;;25.45;42.57;101000.97;1784695;79;21857;-53
2023/09/02 13:26:22;;;;;;;2.27;1.50;;;;;;;25.39;42.48;101010.39;1783129;79;21406;-53
2023/09/02 13:29:29;;;;;;;2.72;1.62;;;;;;;25.39;42.43;100995.83;1771465;81;21351;-53
2023/09/02 13:32:35;;;;;;;4.90;1.85;;;;;;;25.44;42.33;101000.66;1771537;80;21339;-54
2023/09/02 13:35:42;;;;;;;2.90;1.90;;;;;;;25.49;42.24;100996.53;1771014;80;21700;-53
2023/09/02 13:38:46;;;;;;;6.65;4.33;;;;;;;25.50;42.06;100993.47;1776109;79;21355;-54
2023/09/02 13:41:54;;;;;;;4.05;2.10;;;;;;;25.51;41.97;100998.53;1796410;79;21893;-54
2023/09/02 13:45:02;;;;;;;2.08;1.82;;;;;;;25.48;41.92;100999.87;1779764;79;21351;-54
2023/09/02 13:48:08;;;;;;;3.12;2.33;;;;;;;25.47;41.84;100993.98;1775979;79;21613;-54
2023/09/02 13:51:13;;;;;;;6.35;2.60;;;;;;;25.48;41.81;100987.83;1772365;80;21343;-54
2023/09/02 13:54:22;;;;;;;3.08;2.52;;;;;;;25.53;41.80;100993.52;1771974;80;21650;-54
2023/09/02 13:57:31;;;;;;;3.30;2.30;;;;;;;25.54;41.71;100996.61;1769969;80;21539;-58
2023/09/02 14:00:42;;;;;;;2.45;1.82;;;;;;;25.46;41.61;100994.25;1769411;80;21192;-53
2023/09/02 14:03:48;;;;;;;3.67;1.90;;;;;;;25.44;41.61;100995.05;1769563;80;21283;-54
2023/09/02 14:06:55;;;;;;;24.32;12.75;;;;;;;25.41;41.52;100995.56;1762754;80;21749;-53
2023/09/02 14:10:01;;;;;;;26.68;13.28;;;;;;;25.37;41.41;100990.20;1769836;80;21746;-54
2023/09/02 14:13:10;;;;;;;11.85;5.45;;;;;;;25.37;41.41;100997.20;1771505;80;21733;-53
2023/09/02 14:16:16;;;;;;;4.65;2.67;;;;;;;25.42;41.35;100991.67;1782078;79;21189;-53
2023/09/02 14:19:26;;;;;;;4.10;2.17;;;;;;;25.43;41.24;100997.02;1705549;84;21255;-54
2023/09/02 14:22:34;;;;;;;5.08;2.12;;;;;;;25.39;41.15;101001.44;1770241;80;21220;-54
2023/09/02 14:25:40;;;;;;;4.58;2.15;;;;;;;25.33;41.11;100998.78;1770078;80;21737;-53